Terminal Aerodrome Forecast
Issued by NWS Twin Cities, MN

Home | Current Version | Previous Version | Text Only | Print | Product List | Glossary Off
Versions: 1 2 3 4 5 6 7 8 9 10 11 12 13 14

432
FTUS43 KMPX 202337
TAFEAU
TAF
KEAU 202337Z 2100/2124 31003KT P6SM SKC
     FM210300 00000KT P6SM SKC
     FM211500 11007KT P6SM SKC
     FM211800 13009KT P6SM FEW050 OVC250
     FM212100 15009KT P6SM OVC100=

USA.gov is the U.S. government's official web portal to all federal, state and local government web resources and services.